sensor_id;sensor_type;location;lat;lon;timestamp;P1;durP1;ratioP1;P2;durP2;ratioP2
9007;SDS011;62813;51.424;6.762;2024-02-21T00:00:38;28.70;;;12.17;;
9007;SDS011;62813;51.424;6.762;2024-02-21T00:03:05;27.60;;;12.73;;
9007;SDS011;62813;51.424;6.762;2024-02-21T00:05:32;22.40;;;11.83;;
9007;SDS011;62813;51.424;6.762;2024-02-21T00:07:59;23.33;;;12.20;;
9007;SDS011;62813;51.424;6.762;2024-02-21T00:10:25;25.83;;;12.47;;
9007;SDS011;62813;51.424;6.762;2024-02-21T00:12:52;22.07;;;12.80;;
9007;SDS011;62813;51.424;6.762;2024-02-21T00:15:19;24.27;;;13.20;;
9007;SDS011;62813;51.424;6.762;2024-02-21T00:17:45;23.87;;;12.60;;
9007;SDS011;62813;51.424;6.762;2024-02-21T00:20:12;30.03;;;13.60;;
9007;SDS011;62813;51.424;6.762;2024-02-21T00:22:39;23.30;;;12.87;;
9007;SDS011;62813;51.424;6.762;2024-02-21T00:25:05;31.70;;;13.87;;
9007;SDS011;62813;51.424;6.762;2024-02-21T00:27:32;26.17;;;13.10;;
9007;SDS011;62813;51.424;6.762;2024-02-21T00:29:59;25.17;;;12.77;;
9007;SDS011;62813;51.424;6.762;2024-02-21T00:32:26;27.23;;;12.60;;
9007;SDS011;62813;51.424;6.762;2024-02-21T00:34:53;21.63;;;11.73;;
9007;SDS011;62813;51.424;6.762;2024-02-21T00:37:19;25.43;;;12.83;;
9007;SDS011;62813;51.424;6.762;2024-02-21T00:39:46;24.03;;;12.40;;
9007;SDS011;62813;51.424;6.762;2024-02-21T00:42:13;21.90;;;12.27;;
9007;SDS011;62813;51.424;6.762;2024-02-21T00:44:39;27.17;;;12.50;;
9007;SDS011;62813;51.424;6.762;2024-02-21T00:47:06;20.40;;;11.67;;
9007;SDS011;62813;51.424;6.762;2024-02-21T00:49:32;26.37;;;12.70;;
9007;SDS011;62813;51.424;6.762;2024-02-21T00:51:59;25.50;;;12.73;;
9007;SDS011;62813;51.424;6.762;2024-02-21T00:54:25;26.17;;;13.03;;
9007;SDS011;62813;51.424;6.762;2024-02-21T00:57:01;27.50;;;12.30;;
9007;SDS011;62813;51.424;6.762;2024-02-21T00:59:28;29.03;;;12.60;;
9007;SDS011;62813;51.424;6.762;2024-02-21T01:01:54;32.27;;;13.30;;
9007;SDS011;62813;51.424;6.762;2024-02-21T01:04:21;22.77;;;12.53;;
9007;SDS011;62813;51.424;6.762;2024-02-21T01:06:48;22.87;;;12.67;;
9007;SDS011;62813;51.424;6.762;2024-02-21T01:09:14;29.37;;;12.37;;
9007;SDS011;62813;51.424;6.762;2024-02-21T01:11:41;23.03;;;12.30;;
9007;SDS011;62813;51.424;6.762;2024-02-21T01:14:08;23.40;;;11.90;;
9007;SDS011;62813;51.424;6.762;2024-02-21T01:16:34;25.27;;;12.43;;
9007;SDS011;62813;51.424;6.762;2024-02-21T01:19:01;20.30;;;11.63;;
9007;SDS011;62813;51.424;6.762;2024-02-21T01:21:28;26.30;;;11.93;;
9007;SDS011;62813;51.424;6.762;2024-02-21T01:23:54;25.23;;;11.73;;
9007;SDS011;62813;51.424;6.762;2024-02-21T01:26:21;22.43;;;11.47;;
9007;SDS011;62813;51.424;6.762;2024-02-21T01:28:47;19.70;;;11.03;;
9007;SDS011;62813;51.424;6.762;2024-02-21T01:31:14;22.53;;;11.50;;
9007;SDS011;62813;51.424;6.762;2024-02-21T01:33:41;25.20;;;11.67;;
9007;SDS011;62813;51.424;6.762;2024-02-21T01:36:09;21.23;;;11.03;;
9007;SDS011;62813;51.424;6.762;2024-02-21T01:38:35;24.90;;;11.20;;
9007;SDS011;62813;51.424;6.762;2024-02-21T01:41:02;21.67;;;10.90;;
9007;SDS011;62813;51.424;6.762;2024-02-21T01:43:29;22.57;;;11.07;;
9007;SDS011;62813;51.424;6.762;2024-02-21T01:45:56;19.97;;;10.07;;
9007;SDS011;62813;51.424;6.762;2024-02-21T01:48:22;18.03;;;10.30;;
9007;SDS011;62813;51.424;6.762;2024-02-21T01:50:50;19.27;;;10.43;;
9007;SDS011;62813;51.424;6.762;2024-02-21T01:53:18;26.60;;;11.10;;
9007;SDS011;62813;51.424;6.762;2024-02-21T01:55:45;24.03;;;11.23;;
9007;SDS011;62813;51.424;6.762;2024-02-21T01:58:15;25.13;;;10.40;;
9007;SDS011;62813;51.424;6.762;2024-02-21T02:00:42;20.23;;;10.37;;
9007;SDS011;62813;51.424;6.762;2024-02-21T02:03:10;24.07;;;10.33;;
9007;SDS011;62813;51.424;6.762;2024-02-21T02:05:43;21.17;;;10.07;;
9007;SDS011;62813;51.424;6.762;2024-02-21T02:08:11;19.27;;;9.83;;
9007;SDS011;62813;51.424;6.762;2024-02-21T02:10:37;18.63;;;9.77;;
9007;SDS011;62813;51.424;6.762;2024-02-21T02:13:04;20.00;;;10.00;;
9007;SDS011;62813;51.424;6.762;2024-02-21T02:15:37;26.47;;;10.23;;
9007;SDS011;62813;51.424;6.762;2024-02-21T02:18:04;18.73;;;10.27;;
9007;SDS011;62813;51.424;6.762;2024-02-21T02:20:30;25.80;;;10.70;;
9007;SDS011;62813;51.424;6.762;2024-02-21T02:22:58;22.70;;;10.13;;
9007;SDS011;62813;51.424;6.762;2024-02-21T02:25:26;24.80;;;11.00;;
9007;SDS011;62813;51.424;6.762;2024-02-21T02:27:53;19.60;;;10.87;;
9007;SDS011;62813;51.424;6.762;2024-02-21T02:30:19;23.40;;;11.73;;
9007;SDS011;62813;51.424;6.762;2024-02-21T02:32:46;25.17;;;11.37;;
9007;SDS011;62813;51.424;6.762;2024-02-21T02:35:13;31.77;;;11.50;;
9007;SDS011;62813;51.424;6.762;2024-02-21T02:37:40;23.43;;;11.30;;
9007;SDS011;62813;51.424;6.762;2024-02-21T02:40:06;25.83;;;13.00;;
9007;SDS011;62813;51.424;6.762;2024-02-21T02:42:33;25.50;;;12.53;;
9007;SDS011;62813;51.424;6.762;2024-02-21T02:45:00;19.80;;;11.30;;
9007;SDS011;62813;51.424;6.762;2024-02-21T02:47:26;27.27;;;11.23;;
9007;SDS011;62813;51.424;6.762;2024-02-21T02:49:53;26.40;;;11.97;;
9007;SDS011;62813;51.424;6.762;2024-02-21T02:52:19;25.80;;;11.53;;
9007;SDS011;62813;51.424;6.762;2024-02-21T02:54:46;25.47;;;11.97;;
9007;SDS011;62813;51.424;6.762;2024-02-21T02:57:18;22.03;;;11.90;;
9007;SDS011;62813;51.424;6.762;2024-02-21T02:59:48;30.07;;;13.43;;
9007;SDS011;62813;51.424;6.762;2024-02-21T03:02:14;26.20;;;13.10;;
9007;SDS011;62813;51.424;6.762;2024-02-21T03:04:41;26.47;;;13.30;;
9007;SDS011;62813;51.424;6.762;2024-02-21T03:07:08;31.47;;;14.50;;
9007;SDS011;62813;51.424;6.762;2024-02-21T03:09:34;26.23;;;13.53;;
9007;SDS011;62813;51.424;6.762;2024-02-21T03:12:01;29.90;;;13.40;;
9007;SDS011;62813;51.424;6.762;2024-02-21T03:14:31;24.20;;;12.43;;
9007;SDS011;62813;51.424;6.762;2024-02-21T03:16:58;25.73;;;11.80;;
9007;SDS011;62813;51.424;6.762;2024-02-21T03:19:25;28.30;;;13.20;;
9007;SDS011;62813;51.424;6.762;2024-02-21T03:21:52;30.07;;;14.50;;
9007;SDS011;62813;51.424;6.762;2024-02-21T03:24:18;24.33;;;12.27;;
9007;SDS011;62813;51.424;6.762;2024-02-21T03:26:45;27.20;;;13.43;;
9007;SDS011;62813;51.424;6.762;2024-02-21T03:29:13;27.70;;;12.93;;
9007;SDS011;62813;51.424;6.762;2024-02-21T03:31:40;26.27;;;13.20;;
9007;SDS011;62813;51.424;6.762;2024-02-21T03:34:07;20.93;;;12.67;;
9007;SDS011;62813;51.424;6.762;2024-02-21T03:36:34;24.73;;;13.00;;
9007;SDS011;62813;51.424;6.762;2024-02-21T03:39:00;23.30;;;12.83;;
9007;SDS011;62813;51.424;6.762;2024-02-21T03:41:27;25.40;;;11.33;;
9007;SDS011;62813;51.424;6.762;2024-02-21T03:43:54;27.17;;;11.77;;
9007;SDS011;62813;51.424;6.762;2024-02-21T03:46:20;25.00;;;11.83;;
9007;SDS011;62813;51.424;6.762;2024-02-21T03:48:47;22.03;;;10.73;;
9007;SDS011;62813;51.424;6.762;2024-02-21T03:51:14;19.63;;;11.17;;
9007;SDS011;62813;51.424;6.762;2024-02-21T03:53:41;23.10;;;10.87;;
9007;SDS011;62813;51.424;6.762;2024-02-21T03:56:08;20.50;;;12.27;;
9007;SDS011;62813;51.424;6.762;2024-02-21T03:58:34;28.47;;;11.93;;
9007;SDS011;62813;51.424;6.762;2024-02-21T04:01:01;23.23;;;10.57;;
9007;SDS011;62813;51.424;6.762;2024-02-21T04:03:28;21.73;;;11.83;;
9007;SDS011;62813;51.424;6.762;2024-02-21T04:05:55;23.00;;;11.07;;
9007;SDS011;62813;51.424;6.762;2024-02-21T04:08:22;20.50;;;11.37;;
9007;SDS011;62813;51.424;6.762;2024-02-21T04:10:49;23.93;;;9.87;;
9007;SDS011;62813;51.424;6.762;2024-02-21T04:13:15;19.83;;;10.17;;
9007;SDS011;62813;51.424;6.762;2024-02-21T04:15:42;15.60;;;9.87;;
9007;SDS011;62813;51.424;6.762;2024-02-21T04:18:08;17.13;;;8.73;;
9007;SDS011;62813;51.424;6.762;2024-02-21T04:20:35;19.10;;;9.03;;
9007;SDS011;62813;51.424;6.762;2024-02-21T04:23:02;17.47;;;9.47;;
9007;SDS011;62813;51.424;6.762;2024-02-21T04:25:28;19.63;;;9.07;;
9007;SDS011;62813;51.424;6.762;2024-02-21T04:27:55;18.90;;;9.77;;
9007;SDS011;62813;51.424;6.762;2024-02-21T04:30:21;18.90;;;9.33;;
9007;SDS011;62813;51.424;6.762;2024-02-21T04:32:48;18.63;;;10.50;;
9007;SDS011;62813;51.424;6.762;2024-02-21T04:35:15;26.50;;;11.20;;
9007;SDS011;62813;51.424;6.762;2024-02-21T04:37:41;24.70;;;10.57;;
9007;SDS011;62813;51.424;6.762;2024-02-21T04:40:08;21.17;;;10.43;;
9007;SDS011;62813;51.424;6.762;2024-02-21T04:42:35;23.90;;;10.33;;
9007;SDS011;62813;51.424;6.762;2024-02-21T04:45:02;18.07;;;9.90;;
9007;SDS011;62813;51.424;6.762;2024-02-21T04:47:28;22.80;;;10.07;;
9007;SDS011;62813;51.424;6.762;2024-02-21T04:49:55;19.97;;;9.10;;
9007;SDS011;62813;51.424;6.762;2024-02-21T04:52:22;22.37;;;10.37;;
9007;SDS011;62813;51.424;6.762;2024-02-21T04:54:48;20.73;;;9.23;;
9007;SDS011;62813;51.424;6.762;2024-02-21T04:57:15;14.47;;;9.17;;
9007;SDS011;62813;51.424;6.762;2024-02-21T04:59:44;17.83;;;10.33;;
9007;SDS011;62813;51.424;6.762;2024-02-21T05:02:11;19.07;;;9.77;;
9007;SDS011;62813;51.424;6.762;2024-02-21T05:04:41;18.57;;;9.50;;
9007;SDS011;62813;51.424;6.762;2024-02-21T05:07:08;18.10;;;9.67;;
9007;SDS011;62813;51.424;6.762;2024-02-21T05:09:37;16.03;;;9.07;;
9007;SDS011;62813;51.424;6.762;2024-02-21T05:12:04;21.87;;;8.93;;
9007;SDS011;62813;51.424;6.762;2024-02-21T05:14:30;15.23;;;8.47;;
9007;SDS011;62813;51.424;6.762;2024-02-21T05:16:57;16.90;;;8.93;;
9007;SDS011;62813;51.424;6.762;2024-02-21T05:19:23;15.67;;;7.00;;
9007;SDS011;62813;51.424;6.762;2024-02-21T05:21:50;18.50;;;8.47;;
9007;SDS011;62813;51.424;6.762;2024-02-21T05:24:17;22.40;;;8.97;;
9007;SDS011;62813;51.424;6.762;2024-02-21T05:26:43;15.33;;;8.13;;
9007;SDS011;62813;51.424;6.762;2024-02-21T05:29:10;18.13;;;8.40;;
9007;SDS011;62813;51.424;6.762;2024-02-21T05:31:54;16.37;;;7.40;;
9007;SDS011;62813;51.424;6.762;2024-02-21T05:34:22;19.97;;;8.90;;
9007;SDS011;62813;51.424;6.762;2024-02-21T05:36:49;17.60;;;7.93;;
9007;SDS011;62813;51.424;6.762;2024-02-21T05:39:18;19.73;;;7.83;;
9007;SDS011;62813;51.424;6.762;2024-02-21T05:41:45;18.63;;;7.33;;
9007;SDS011;62813;51.424;6.762;2024-02-21T05:44:12;18.57;;;7.60;;
9007;SDS011;62813;51.424;6.762;2024-02-21T05:46:38;15.97;;;7.03;;
9007;SDS011;62813;51.424;6.762;2024-02-21T05:49:05;14.93;;;7.63;;
9007;SDS011;62813;51.424;6.762;2024-02-21T05:51:33;15.87;;;7.37;;
9007;SDS011;62813;51.424;6.762;2024-02-21T05:54:00;12.60;;;6.73;;
9007;SDS011;62813;51.424;6.762;2024-02-21T05:56:26;15.97;;;7.90;;
9007;SDS011;62813;51.424;6.762;2024-02-21T05:58:53;12.90;;;6.27;;
9007;SDS011;62813;51.424;6.762;2024-02-21T06:01:20;16.77;;;7.10;;
9007;SDS011;62813;51.424;6.762;2024-02-21T06:03:50;19.67;;;7.33;;
9007;SDS011;62813;51.424;6.762;2024-02-21T06:06:17;16.30;;;6.70;;
9007;SDS011;62813;51.424;6.762;2024-02-21T06:08:44;15.20;;;6.97;;
9007;SDS011;62813;51.424;6.762;2024-02-21T06:11:10;14.50;;;6.97;;
9007;SDS011;62813;51.424;6.762;2024-02-21T06:13:40;13.87;;;6.73;;
9007;SDS011;62813;51.424;6.762;2024-02-21T06:16:06;19.53;;;8.07;;
9007;SDS011;62813;51.424;6.762;2024-02-21T06:18:34;18.27;;;6.80;;
9007;SDS011;62813;51.424;6.762;2024-02-21T06:21:02;16.53;;;6.90;;
9007;SDS011;62813;51.424;6.762;2024-02-21T06:23:28;14.23;;;6.77;;
9007;SDS011;62813;51.424;6.762;2024-02-21T06:25:55;15.43;;;6.13;;
9007;SDS011;62813;51.424;6.762;2024-02-21T06:28:21;18.87;;;7.53;;
9007;SDS011;62813;51.424;6.762;2024-02-21T06:30:48;15.13;;;6.97;;
9007;SDS011;62813;51.424;6.762;2024-02-21T06:33:15;18.93;;;7.53;;
9007;SDS011;62813;51.424;6.762;2024-02-21T06:35:41;14.50;;;6.27;;
9007;SDS011;62813;51.424;6.762;2024-02-21T06:38:09;10.90;;;6.90;;
9007;SDS011;62813;51.424;6.762;2024-02-21T06:40:36;17.80;;;7.83;;
9007;SDS011;62813;51.424;6.762;2024-02-21T06:43:06;20.10;;;9.67;;
9007;SDS011;62813;51.424;6.762;2024-02-21T06:45:32;13.77;;;6.27;;
9007;SDS011;62813;51.424;6.762;2024-02-21T06:47:59;20.23;;;6.40;;
9007;SDS011;62813;51.424;6.762;2024-02-21T06:50:25;12.97;;;6.33;;
9007;SDS011;62813;51.424;6.762;2024-02-21T06:52:52;15.90;;;7.03;;
9007;SDS011;62813;51.424;6.762;2024-02-21T06:55:19;14.40;;;6.50;;
9007;SDS011;62813;51.424;6.762;2024-02-21T06:57:45;19.07;;;7.37;;
9007;SDS011;62813;51.424;6.762;2024-02-21T07:00:14;11.80;;;7.30;;
9007;SDS011;62813;51.424;6.762;2024-02-21T07:02:41;16.17;;;7.67;;
9007;SDS011;62813;51.424;6.762;2024-02-21T07:05:08;23.50;;;7.47;;
9007;SDS011;62813;51.424;6.762;2024-02-21T07:07:35;14.27;;;6.90;;
9007;SDS011;62813;51.424;6.762;2024-02-21T07:10:02;23.43;;;7.43;;
9007;SDS011;62813;51.424;6.762;2024-02-21T07:12:28;16.17;;;6.53;;
9007;SDS011;62813;51.424;6.762;2024-02-21T07:14:55;18.37;;;7.93;;
9007;SDS011;62813;51.424;6.762;2024-02-21T07:17:21;13.73;;;6.57;;
9007;SDS011;62813;51.424;6.762;2024-02-21T07:19:48;14.77;;;6.70;;
9007;SDS011;62813;51.424;6.762;2024-02-21T07:22:15;17.60;;;7.13;;
9007;SDS011;62813;51.424;6.762;2024-02-21T07:24:41;12.60;;;6.17;;
9007;SDS011;62813;51.424;6.762;2024-02-21T07:27:08;13.10;;;5.97;;
9007;SDS011;62813;51.424;6.762;2024-02-21T07:29:34;16.53;;;6.37;;
9007;SDS011;62813;51.424;6.762;2024-02-21T07:32:02;20.47;;;7.23;;
9007;SDS011;62813;51.424;6.762;2024-02-21T07:34:29;14.00;;;6.63;;
9007;SDS011;62813;51.424;6.762;2024-02-21T07:36:55;21.03;;;6.97;;
9007;SDS011;62813;51.424;6.762;2024-02-21T07:39:22;17.20;;;6.47;;
9007;SDS011;62813;51.424;6.762;2024-02-21T07:41:49;18.83;;;8.83;;
9007;SDS011;62813;51.424;6.762;2024-02-21T07:44:15;17.00;;;7.63;;
9007;SDS011;62813;51.424;6.762;2024-02-21T07:46:42;9.93;;;6.20;;
9007;SDS011;62813;51.424;6.762;2024-02-21T07:49:09;14.93;;;7.33;;
9007;SDS011;62813;51.424;6.762;2024-02-21T07:51:35;14.77;;;7.27;;
9007;SDS011;62813;51.424;6.762;2024-02-21T07:54:02;13.07;;;7.40;;
9007;SDS011;62813;51.424;6.762;2024-02-21T07:56:30;16.50;;;7.87;;
9007;SDS011;62813;51.424;6.762;2024-02-21T07:58:57;10.40;;;6.80;;
9007;SDS011;62813;51.424;6.762;2024-02-21T08:01:24;22.70;;;7.60;;
9007;SDS011;62813;51.424;6.762;2024-02-21T08:03:51;20.63;;;7.47;;
9007;SDS011;62813;51.424;6.762;2024-02-21T08:06:18;14.83;;;7.10;;
9007;SDS011;62813;51.424;6.762;2024-02-21T08:08:44;14.60;;;6.17;;
9007;SDS011;62813;51.424;6.762;2024-02-21T08:11:13;14.10;;;6.27;;
9007;SDS011;62813;51.424;6.762;2024-02-21T08:13:40;22.70;;;7.97;;
9007;SDS011;62813;51.424;6.762;2024-02-21T08:16:06;18.73;;;8.10;;
9007;SDS011;62813;51.424;6.762;2024-02-21T08:18:33;12.37;;;6.07;;
9007;SDS011;62813;51.424;6.762;2024-02-21T08:21:03;13.37;;;6.13;;
9007;SDS011;62813;51.424;6.762;2024-02-21T08:23:29;10.83;;;5.50;;
9007;SDS011;62813;51.424;6.762;2024-02-21T08:25:56;15.43;;;5.30;;
9007;SDS011;62813;51.424;6.762;2024-02-21T08:28:23;14.33;;;6.23;;
9007;SDS011;62813;51.424;6.762;2024-02-21T08:30:49;15.40;;;6.47;;
9007;SDS011;62813;51.424;6.762;2024-02-21T08:33:16;14.17;;;6.70;;
9007;SDS011;62813;51.424;6.762;2024-02-21T08:35:43;21.57;;;10.77;;
9007;SDS011;62813;51.424;6.762;2024-02-21T08:38:10;13.17;;;6.13;;
9007;SDS011;62813;51.424;6.762;2024-02-21T08:40:36;17.07;;;7.40;;
9007;SDS011;62813;51.424;6.762;2024-02-21T08:43:03;19.03;;;8.17;;
9007;SDS011;62813;51.424;6.762;2024-02-21T08:45:30;19.17;;;8.03;;
9007;SDS011;62813;51.424;6.762;2024-02-21T08:47:56;23.60;;;7.27;;
9007;SDS011;62813;51.424;6.762;2024-02-21T08:50:23;16.90;;;6.23;;
9007;SDS011;62813;51.424;6.762;2024-02-21T08:52:54;16.83;;;5.90;;
9007;SDS011;62813;51.424;6.762;2024-02-21T08:55:21;16.80;;;6.70;;
9007;SDS011;62813;51.424;6.762;2024-02-21T08:57:48;15.17;;;6.60;;
9007;SDS011;62813;51.424;6.762;2024-02-21T09:00:15;16.77;;;7.40;;
9007;SDS011;62813;51.424;6.762;2024-02-21T09:02:42;13.57;;;5.57;;
9007;SDS011;62813;51.424;6.762;2024-02-21T09:05:10;17.57;;;5.87;;
9007;SDS011;62813;51.424;6.762;2024-02-21T09:07:36;20.20;;;8.17;;
9007;SDS011;62813;51.424;6.762;2024-02-21T09:10:03;15.77;;;7.10;;
9007;SDS011;62813;51.424;6.762;2024-02-21T09:12:30;16.17;;;6.57;;
9007;SDS011;62813;51.424;6.762;2024-02-21T09:14:57;16.87;;;7.10;;
9007;SDS011;62813;51.424;6.762;2024-02-21T09:17:23;13.40;;;6.03;;
9007;SDS011;62813;51.424;6.762;2024-02-21T09:19:51;15.33;;;5.83;;
9007;SDS011;62813;51.424;6.762;2024-02-21T09:22:18;15.37;;;5.97;;
9007;SDS011;62813;51.424;6.762;2024-02-21T09:24:45;15.23;;;6.63;;
9007;SDS011;62813;51.424;6.762;2024-02-21T09:27:12;15.07;;;6.63;;
9007;SDS011;62813;51.424;6.762;2024-02-21T09:29:39;18.60;;;6.53;;
9007;SDS011;62813;51.424;6.762;2024-02-21T09:32:06;14.37;;;6.37;;
9007;SDS011;62813;51.424;6.762;2024-02-21T09:34:33;15.37;;;5.93;;
9007;SDS011;62813;51.424;6.762;2024-02-21T09:37:00;12.77;;;4.80;;
9007;SDS011;62813;51.424;6.762;2024-02-21T09:39:26;21.47;;;5.43;;
9007;SDS011;62813;51.424;6.762;2024-02-21T09:41:54;9.87;;;5.20;;
9007;SDS011;62813;51.424;6.762;2024-02-21T09:44:23;10.20;;;4.37;;
9007;SDS011;62813;51.424;6.762;2024-02-21T09:47:03;13.83;;;4.20;;
9007;SDS011;62813;51.424;6.762;2024-02-21T09:49:34;11.73;;;4.67;;
9007;SDS011;62813;51.424;6.762;2024-02-21T09:52:02;13.77;;;4.27;;
9007;SDS011;62813;51.424;6.762;2024-02-21T09:54:30;16.87;;;5.23;;
9007;SDS011;62813;51.424;6.762;2024-02-21T09:57:00;12.57;;;3.90;;
9007;SDS011;62813;51.424;6.762;2024-02-21T09:59:27;10.47;;;4.30;;
9007;SDS011;62813;51.424;6.762;2024-02-21T10:01:54;9.43;;;3.43;;
9007;SDS011;62813;51.424;6.762;2024-02-21T10:04:21;13.73;;;4.17;;
9007;SDS011;62813;51.424;6.762;2024-02-21T10:06:48;9.40;;;3.77;;
9007;SDS011;62813;51.424;6.762;2024-02-21T10:09:27;9.67;;;4.00;;
9007;SDS011;62813;51.424;6.762;2024-02-21T10:11:55;6.57;;;3.23;;
9007;SDS011;62813;51.424;6.762;2024-02-21T10:14:22;10.63;;;4.07;;
9007;SDS011;62813;51.424;6.762;2024-02-21T10:16:56;7.37;;;3.73;;
9007;SDS011;62813;51.424;6.762;2024-02-21T10:19:23;8.83;;;3.27;;
9007;SDS011;62813;51.424;6.762;2024-02-21T10:22:08;8.60;;;3.30;;
9007;SDS011;62813;51.424;6.762;2024-02-21T10:24:36;10.07;;;2.97;;
9007;SDS011;62813;51.424;6.762;2024-02-21T10:27:08;6.87;;;3.47;;
9007;SDS011;62813;51.424;6.762;2024-02-21T10:29:35;9.03;;;3.40;;
9007;SDS011;62813;51.424;6.762;2024-02-21T10:32:09;11.87;;;3.77;;
9007;SDS011;62813;51.424;6.762;2024-02-21T10:34:36;5.60;;;2.90;;
9007;SDS011;62813;51.424;6.762;2024-02-21T10:37:07;7.30;;;2.80;;
9007;SDS011;62813;51.424;6.762;2024-02-21T10:39:42;9.50;;;3.17;;
9007;SDS011;62813;51.424;6.762;2024-02-21T10:42:11;11.50;;;3.73;;
9007;SDS011;62813;51.424;6.762;2024-02-21T10:44:39;8.57;;;3.03;;
9007;SDS011;62813;51.424;6.762;2024-02-21T10:47:08;9.53;;;3.20;;
9007;SDS011;62813;51.424;6.762;2024-02-21T10:49:41;8.43;;;3.07;;
9007;SDS011;62813;51.424;6.762;2024-02-21T10:57:22;9.80;;;2.97;;
9007;SDS011;62813;51.424;6.762;2024-02-21T10:59:49;9.00;;;3.23;;
9007;SDS011;62813;51.424;6.762;2024-02-21T11:02:16;8.03;;;3.23;;
9007;SDS011;62813;51.424;6.762;2024-02-21T11:04:43;7.90;;;2.97;;
9007;SDS011;62813;51.424;6.762;2024-02-21T11:07:11;10.63;;;3.63;;
9007;SDS011;62813;51.424;6.762;2024-02-21T11:09:37;10.60;;;3.33;;
9007;SDS011;62813;51.424;6.762;2024-02-21T11:12:05;6.60;;;3.03;;
9007;SDS011;62813;51.424;6.762;2024-02-21T11:14:32;12.90;;;4.23;;
9007;SDS011;62813;51.424;6.762;2024-02-21T11:16:59;8.10;;;3.27;;
9007;SDS011;62813;51.424;6.762;2024-02-21T11:19:26;7.13;;;2.93;;
9007;SDS011;62813;51.424;6.762;2024-02-21T11:21:54;9.33;;;3.13;;
9007;SDS011;62813;51.424;6.762;2024-02-21T11:24:28;7.97;;;3.13;;
9007;SDS011;62813;51.424;6.762;2024-02-21T11:29:46;6.97;;;3.10;;
9007;SDS011;62813;51.424;6.762;2024-02-21T11:32:17;5.97;;;2.57;;
9007;SDS011;62813;51.424;6.762;2024-02-21T11:34:55;8.23;;;3.13;;
9007;SDS011;62813;51.424;6.762;2024-02-21T11:37:24;7.50;;;3.30;;
9007;SDS011;62813;51.424;6.762;2024-02-21T11:39:50;10.37;;;3.10;;
9007;SDS011;62813;51.424;6.762;2024-02-21T11:42:19;10.93;;;3.47;;
9007;SDS011;62813;51.424;6.762;2024-02-21T11:44:46;8.47;;;3.43;;
9007;SDS011;62813;51.424;6.762;2024-02-21T11:47:13;9.20;;;2.90;;
9007;SDS011;62813;51.424;6.762;2024-02-21T11:49:47;8.37;;;3.30;;
9007;SDS011;62813;51.424;6.762;2024-02-21T11:52:15;5.70;;;3.00;;
9007;SDS011;62813;51.424;6.762;2024-02-21T11:54:43;6.60;;;3.13;;
9007;SDS011;62813;51.424;6.762;2024-02-21T11:57:10;7.33;;;3.20;;
9007;SDS011;62813;51.424;6.762;2024-02-21T11:59:39;9.73;;;3.50;;
9007;SDS011;62813;51.424;6.762;2024-02-21T12:02:06;10.43;;;3.87;;
9007;SDS011;62813;51.424;6.762;2024-02-21T12:04:33;9.83;;;3.57;;
9007;SDS011;62813;51.424;6.762;2024-02-21T12:06:59;7.93;;;3.40;;
9007;SDS011;62813;51.424;6.762;2024-02-21T12:09:26;8.80;;;4.30;;
9007;SDS011;62813;51.424;6.762;2024-02-21T12:11:59;9.57;;;3.80;;
9007;SDS011;62813;51.424;6.762;2024-02-21T12:14:27;9.43;;;4.40;;
9007;SDS011;62813;51.424;6.762;2024-02-21T12:16:54;11.07;;;5.83;;
9007;SDS011;62813;51.424;6.762;2024-02-21T12:19:21;10.00;;;3.63;;
9007;SDS011;62813;51.424;6.762;2024-02-21T12:21:48;11.77;;;4.00;;
9007;SDS011;62813;51.424;6.762;2024-02-21T12:24:23;9.30;;;3.47;;
9007;SDS011;62813;51.424;6.762;2024-02-21T12:26:50;8.37;;;3.70;;
9007;SDS011;62813;51.424;6.762;2024-02-21T12:29:22;8.20;;;3.50;;
9007;SDS011;62813;51.424;6.762;2024-02-21T12:31:49;7.77;;;3.17;;
9007;SDS011;62813;51.424;6.762;2024-02-21T12:34:16;6.77;;;3.03;;
9007;SDS011;62813;51.424;6.762;2024-02-21T12:36:56;8.70;;;2.97;;
9007;SDS011;62813;51.424;6.762;2024-02-21T12:39:22;12.07;;;3.30;;
9007;SDS011;62813;51.424;6.762;2024-02-21T12:41:49;11.07;;;3.37;;
9007;SDS011;62813;51.424;6.762;2024-02-21T12:44:15;7.53;;;3.50;;
9007;SDS011;62813;51.424;6.762;2024-02-21T12:46:44;9.70;;;3.47;;
9007;SDS011;62813;51.424;6.762;2024-02-21T12:49:11;7.00;;;3.03;;
9007;SDS011;62813;51.424;6.762;2024-02-21T12:51:38;10.87;;;3.47;;
9007;SDS011;62813;51.424;6.762;2024-02-21T12:54:05;10.67;;;3.47;;
9007;SDS011;62813;51.424;6.762;2024-02-21T12:56:32;8.43;;;3.40;;
9007;SDS011;62813;51.424;6.762;2024-02-21T12:58:58;6.70;;;2.57;;
9007;SDS011;62813;51.424;6.762;2024-02-21T13:01:25;6.03;;;2.50;;
9007;SDS011;62813;51.424;6.762;2024-02-21T13:03:53;9.23;;;2.73;;
9007;SDS011;62813;51.424;6.762;2024-02-21T13:06:20;6.43;;;2.73;;
9007;SDS011;62813;51.424;6.762;2024-02-21T13:08:47;9.60;;;3.17;;
9007;SDS011;62813;51.424;6.762;2024-02-21T13:11:13;12.77;;;3.27;;
9007;SDS011;62813;51.424;6.762;2024-02-21T13:13:40;13.10;;;3.20;;
9007;SDS011;62813;51.424;6.762;2024-02-21T13:16:07;7.50;;;2.70;;
9007;SDS011;62813;51.424;6.762;2024-02-21T13:18:34;7.97;;;2.67;;
9007;SDS011;62813;51.424;6.762;2024-02-21T13:21:01;8.37;;;2.90;;
9007;SDS011;62813;51.424;6.762;2024-02-21T13:23:28;5.93;;;2.57;;
9007;SDS011;62813;51.424;6.762;2024-02-21T13:25:55;8.10;;;3.00;;
9007;SDS011;62813;51.424;6.762;2024-02-21T13:28:22;6.23;;;2.60;;
9007;SDS011;62813;51.424;6.762;2024-02-21T13:30:48;10.73;;;3.10;;
9007;SDS011;62813;51.424;6.762;2024-02-21T13:33:15;12.03;;;3.03;;
9007;SDS011;62813;51.424;6.762;2024-02-21T13:35:42;8.60;;;2.83;;
9007;SDS011;62813;51.424;6.762;2024-02-21T13:38:09;7.33;;;2.73;;
9007;SDS011;62813;51.424;6.762;2024-02-21T13:40:37;11.63;;;3.60;;
9007;SDS011;62813;51.424;6.762;2024-02-21T13:43:03;6.47;;;2.67;;
9007;SDS011;62813;51.424;6.762;2024-02-21T13:45:30;7.87;;;2.80;;
9007;SDS011;62813;51.424;6.762;2024-02-21T13:47:57;8.13;;;2.67;;
9007;SDS011;62813;51.424;6.762;2024-02-21T13:50:27;8.67;;;2.70;;
9007;SDS011;62813;51.424;6.762;2024-02-21T13:52:55;6.70;;;2.93;;
9007;SDS011;62813;51.424;6.762;2024-02-21T13:55:22;8.43;;;3.13;;
9007;SDS011;62813;51.424;6.762;2024-02-21T13:57:52;6.73;;;2.60;;
9007;SDS011;62813;51.424;6.762;2024-02-21T14:00:19;8.53;;;3.00;;
9007;SDS011;62813;51.424;6.762;2024-02-21T14:02:46;10.70;;;3.00;;
9007;SDS011;62813;51.424;6.762;2024-02-21T14:05:13;7.20;;;3.07;;
9007;SDS011;62813;51.424;6.762;2024-02-21T14:07:41;5.90;;;2.83;;
9007;SDS011;62813;51.424;6.762;2024-02-21T14:10:08;11.10;;;2.97;;
9007;SDS011;62813;51.424;6.762;2024-02-21T14:12:36;7.30;;;2.80;;
9007;SDS011;62813;51.424;6.762;2024-02-21T14:15:03;5.77;;;3.20;;
9007;SDS011;62813;51.424;6.762;2024-02-21T14:17:29;8.40;;;2.90;;
9007;SDS011;62813;51.424;6.762;2024-02-21T14:19:56;8.47;;;3.77;;
9007;SDS011;62813;51.424;6.762;2024-02-21T14:22:22;11.77;;;6.50;;
9007;SDS011;62813;51.424;6.762;2024-02-21T14:24:49;11.67;;;6.67;;
9007;SDS011;62813;51.424;6.762;2024-02-21T14:27:15;8.50;;;3.03;;
9007;SDS011;62813;51.424;6.762;2024-02-21T14:29:42;5.80;;;3.00;;
9007;SDS011;62813;51.424;6.762;2024-02-21T14:32:09;9.60;;;3.00;;
9007;SDS011;62813;51.424;6.762;2024-02-21T14:34:36;7.50;;;2.90;;
9007;SDS011;62813;51.424;6.762;2024-02-21T14:37:03;7.33;;;2.80;;
9007;SDS011;62813;51.424;6.762;2024-02-21T14:39:30;13.80;;;3.03;;
9007;SDS011;62813;51.424;6.762;2024-02-21T14:41:58;9.57;;;3.30;;
9007;SDS011;62813;51.424;6.762;2024-02-21T14:44:26;6.73;;;3.37;;
9007;SDS011;62813;51.424;6.762;2024-02-21T14:46:53;8.23;;;2.90;;
9007;SDS011;62813;51.424;6.762;2024-02-21T14:49:20;8.77;;;3.30;;
9007;SDS011;62813;51.424;6.762;2024-02-21T14:51:47;7.37;;;2.90;;
9007;SDS011;62813;51.424;6.762;2024-02-21T14:54:14;9.47;;;3.03;;
9007;SDS011;62813;51.424;6.762;2024-02-21T14:56:40;6.87;;;2.80;;